createdAt,value
2019-05-01T00:01:27.091Z,7.40
2019-05-01T00:04:16.193Z,7.40
2019-05-01T00:06:49.697Z,7.40
2019-05-01T00:09:21.171Z,7.30
2019-05-01T00:11:51.293Z,7.30
2019-05-01T00:14:22.076Z,7.30
2019-05-01T00:16:52.218Z,7.30
2019-05-01T00:19:22.356Z,7.20
2019-05-01T00:21:52.472Z,7.20
2019-05-01T00:24:22.659Z,7.20
2019-05-01T00:26:52.695Z,7.20
2019-05-01T00:29:22.714Z,7.10
2019-05-01T00:31:52.808Z,7.20
2019-05-01T00:34:22.973Z,7.20
2019-05-01T00:36:53.041Z,7.20
2019-05-01T00:39:23.089Z,7.20
2019-05-01T00:41:53.196Z,7.10
2019-05-01T00:44:35.237Z,7.10
2019-05-01T00:47:05.427Z,7.10
2019-05-01T00:49:35.448Z,7.00
2019-05-01T00:52:05.513Z,6.90
2019-05-01T00:54:37.190Z,6.90
2019-05-01T00:57:26.260Z,6.80
2019-05-01T01:00:18.428Z,6.80
2019-05-01T01:02:51.145Z,6.80
2019-05-01T01:05:33.914Z,6.80
2019-05-01T01:08:04.518Z,6.70
2019-05-01T01:10:34.911Z,6.70
2019-05-01T01:13:05.016Z,6.70
2019-05-01T01:15:35.146Z,6.60
2019-05-01T01:18:05.510Z,6.60
2019-05-01T01:20:35.654Z,6.60
2019-05-01T01:23:05.763Z,6.50
2019-05-01T01:25:35.992Z,6.50
2019-05-01T01:28:06.391Z,6.50
2019-05-01T01:30:36.413Z,6.50
2019-05-01T01:33:06.630Z,6.40
2019-05-01T01:35:36.726Z,6.40
2019-05-01T01:38:06.912Z,6.40
2019-05-01T01:40:37.115Z,6.40
2019-05-01T01:43:25.294Z,6.30
2019-05-01T01:45:56.662Z,6.30
2019-05-01T01:48:27.140Z,6.30
2019-05-01T01:50:57.309Z,6.20
2019-05-01T01:53:27.645Z,6.20
2019-05-01T01:55:57.879Z,6.10
2019-05-01T01:58:28.274Z,6.10
2019-05-01T02:01:23.739Z,6.10
2019-05-01T02:03:58.570Z,6.10
2019-05-01T02:06:28.769Z,6.00
2019-05-01T02:08:58.822Z,6.00
2019-05-01T02:11:29.042Z,6.00
2019-05-01T02:13:59.264Z,6.00
2019-05-01T02:16:29.374Z,6.00
2019-05-01T02:18:59.411Z,5.90
2019-05-01T02:21:29.530Z,5.90
2019-05-01T02:23:59.576Z,5.90
2019-05-01T02:26:32.683Z,5.90
2019-05-01T02:29:10.224Z,5.90
2019-05-01T02:31:44.656Z,5.90
2019-05-01T02:34:15.289Z,5.80
2019-05-01T02:36:47.028Z,5.80
2019-05-01T02:39:19.401Z,5.80
2019-05-01T02:41:52.616Z,5.80
2019-05-01T02:44:31.706Z,5.70
2019-05-01T02:47:04.788Z,5.70
2019-05-01T02:49:53.155Z,5.70
2019-05-01T02:52:25.906Z,5.70
2019-05-01T02:54:58.307Z,5.60
2019-05-01T02:57:29.656Z,5.60
2019-05-01T03:00:00.111Z,5.60
2019-05-01T03:02:31.233Z,5.50
2019-05-01T03:05:01.743Z,5.50
2019-05-01T03:07:34.793Z,5.50
2019-05-01T03:10:09.170Z,5.50
2019-05-01T03:12:40.897Z,5.50
2019-05-01T03:15:13.154Z,5.40
2019-05-01T03:18:01.488Z,5.40
2019-05-01T03:20:38.706Z,5.40
2019-05-01T03:23:37.983Z,5.30
2019-05-01T03:26:08.312Z,5.30
2019-05-01T03:28:39.219Z,5.30
2019-05-01T03:31:09.730Z,5.30
2019-05-01T03:33:40.476Z,5.20
2019-05-01T03:36:10.997Z,5.20
2019-05-01T03:38:41.045Z,5.20
2019-05-01T03:41:11.350Z,5.20
2019-05-01T03:43:41.849Z,5.20
2019-05-01T03:46:11.993Z,5.20
2019-05-01T03:48:42.694Z,5.20
2019-05-01T03:51:13.181Z,5.10
2019-05-01T03:53:43.643Z,5.10
2019-05-01T03:56:14.838Z,5.10
2019-05-01T03:58:45.014Z,5.00
2019-05-01T04:01:22.124Z,5.00
2019-05-01T04:03:55.521Z,5.00
2019-05-01T04:06:25.801Z,5.00
2019-05-01T04:08:56.175Z,5.00
2019-05-01T04:11:26.387Z,5.00
2019-05-01T04:13:57.364Z,4.90
2019-05-01T04:16:28.661Z,5.00
2019-05-01T04:18:59.122Z,4.90
2019-05-01T04:21:34.031Z,4.90
2019-05-01T04:24:04.464Z,4.90
2019-05-01T04:26:34.751Z,4.90
2019-05-01T04:29:30.329Z,5.00
2019-05-01T04:32:13.078Z,5.00
2019-05-01T04:34:50.671Z,5.00
2019-05-01T04:37:21.818Z,5.00
2019-05-01T04:39:52.149Z,5.00
2019-05-01T04:42:22.691Z,5.00
2019-05-01T04:44:52.835Z,5.00
2019-05-01T04:47:23.156Z,5.00
2019-05-01T04:49:53.749Z,5.10
2019-05-01T04:52:24.081Z,5.10
2019-05-01T04:54:54.123Z,5.10
2019-05-01T04:57:24.662Z,5.20
2019-05-01T04:59:54.978Z,5.30
2019-05-01T05:02:34.337Z,5.30
2019-05-01T05:05:05.399Z,5.30
2019-05-01T05:07:36.170Z,5.40
2019-05-01T05:10:06.594Z,5.50
2019-05-01T05:12:50.741Z,5.60
2019-05-01T05:15:39.117Z,5.60
2019-05-01T05:18:09.888Z,5.70
2019-05-01T05:20:40.216Z,5.80
2019-05-01T05:23:10.588Z,6.00
2019-05-01T05:25:41.319Z,6.00
2019-05-01T05:28:12.696Z,6.10
2019-05-01T05:30:44.882Z,6.20
2019-05-01T05:33:18.917Z,6.30
2019-05-01T05:35:50.875Z,6.40
2019-05-01T05:38:46.734Z,6.50
2019-05-01T05:41:17.922Z,6.60
2019-05-01T05:43:48.575Z,6.70
2019-05-01T05:46:19.418Z,6.80
2019-05-01T05:48:49.783Z,7.00
2019-05-01T05:51:35.087Z,7.10
2019-05-01T05:54:14.070Z,7.20
2019-05-01T05:56:52.349Z,7.30
2019-05-01T05:59:27.284Z,7.50
2019-05-01T06:02:06.061Z,7.60
2019-05-01T06:05:13.545Z,7.70
2019-05-01T06:08:05.805Z,7.80
2019-05-01T06:10:43.296Z,8.00
2019-05-01T06:13:38.720Z,8.10
2019-05-01T06:16:24.815Z,8.30
2019-05-01T06:19:16.843Z,8.50
2019-05-01T06:22:10.430Z,8.60
2019-05-01T06:24:42.462Z,8.80
2019-05-01T06:27:15.066Z,8.90
2019-05-01T06:29:45.447Z,9.10
2019-05-01T06:32:28.841Z,9.20
2019-05-01T06:35:03.042Z,9.30
2019-05-01T06:38:01.978Z,9.40
2019-05-01T06:40:40.745Z,9.50
2019-05-01T06:43:37.251Z,9.60
2019-05-01T06:46:27.390Z,9.70
2019-05-01T06:49:07.101Z,9.80
2019-05-01T06:51:47.977Z,9.90
2019-05-01T06:54:17.618Z,10.10
2019-05-01T06:56:50.065Z,10.20
2019-05-01T06:59:20.775Z,10.30
2019-05-01T07:01:53.196Z,10.40
2019-05-01T07:04:24.672Z,10.50
2019-05-01T07:06:55.287Z,10.70
2019-05-01T07:09:28.033Z,10.70
2019-05-01T07:11:58.453Z,10.80
2019-05-01T07:14:29.123Z,10.90
2019-05-01T07:16:59.560Z,11.00
2019-05-01T07:19:54.055Z,11.10
2019-05-01T07:22:24.241Z,11.20
2019-05-01T07:24:59.008Z,11.40
2019-05-01T07:27:38.432Z,11.40
2019-05-01T07:30:22.196Z,11.60
2019-05-01T07:32:52.444Z,11.70
2019-05-01T07:35:23.121Z,11.80
2019-05-01T07:37:53.349Z,11.90
2019-05-01T07:40:28.925Z,12.00
2019-05-01T07:43:01.813Z,12.10
2019-05-01T07:45:49.953Z,12.10
2019-05-01T07:48:27.695Z,12.30
2019-05-01T07:51:01.887Z,12.30
2019-05-01T07:53:33.336Z,12.40
2019-05-01T07:56:04.421Z,12.40
2019-05-01T07:58:35.118Z,12.40
2019-05-01T08:01:13.062Z,12.70
2019-05-01T08:03:42.643Z,12.90
2019-05-01T08:06:16.357Z,13.00
2019-05-01T08:08:45.686Z,13.10
2019-05-01T08:11:16.071Z,13.30
2019-05-01T08:13:46.276Z,13.30
2019-05-01T08:16:16.377Z,13.40
2019-05-01T08:18:54.304Z,13.70
2019-05-01T08:21:42.745Z,13.90
2019-05-01T08:24:12.873Z,14.20
2019-05-01T08:26:44.138Z,14.60
2019-05-01T08:29:32.569Z,14.90
2019-05-01T08:32:18.016Z,14.80
2019-05-01T08:34:49.446Z,14.70
2019-05-01T08:37:22.672Z,14.70
2019-05-01T08:39:51.660Z,14.90
2019-05-01T08:42:21.825Z,15.00
2019-05-01T08:45:19.824Z,15.20
2019-05-01T08:48:00.391Z,15.10
2019-05-01T08:50:29.302Z,15.00
2019-05-01T08:52:59.576Z,14.80
2019-05-01T08:55:33.329Z,14.80
2019-05-01T08:58:03.473Z,15.00
2019-05-01T09:00:36.438Z,15.10
2019-05-01T09:03:08.686Z,15.30
2019-05-01T09:05:37.283Z,15.40
2019-05-01T09:08:07.397Z,15.50
2019-05-01T09:10:37.490Z,15.80
2019-05-01T09:13:09.495Z,15.90
2019-05-01T09:15:43.649Z,16.20
2019-05-01T09:18:11.684Z,16.50
2019-05-01T09:20:43.651Z,16.70
2019-05-01T09:23:14.311Z,16.60
2019-05-01T09:25:53.030Z,16.60
2019-05-01T09:28:28.009Z,16.70
2019-05-01T09:31:02.216Z,16.80
2019-05-01T09:33:32.715Z,16.90
2019-05-01T09:36:03.000Z,17.10
2019-05-01T09:38:33.131Z,17.20
2019-05-01T09:41:03.428Z,17.20
2019-05-01T09:43:35.761Z,17.20
2019-05-01T09:46:08.403Z,17.60
2019-05-01T09:48:57.628Z,18.10
2019-05-01T09:51:42.530Z,18.70
2019-05-01T09:54:32.952Z,19.40
2019-05-01T09:57:03.419Z,19.70
2019-05-01T09:59:33.677Z,20.20
2019-05-01T10:02:07.781Z,20.40
2019-05-01T10:04:35.802Z,20.50
2019-05-01T10:07:08.095Z,20.70
2019-05-01T10:09:38.198Z,20.90
2019-05-01T10:12:11.550Z,20.80
2019-05-01T10:14:40.149Z,20.40
2019-05-01T10:17:13.505Z,19.70
2019-05-01T10:19:46.915Z,19.30
2019-05-01T10:22:17.061Z,19.10
2019-05-01T10:24:47.191Z,19.10
2019-05-01T10:27:20.381Z,19.00
2019-05-01T10:30:11.883Z,19.00
2019-05-01T10:32:52.851Z,19.30
2019-05-01T10:35:42.814Z,19.60
2019-05-01T10:38:12.553Z,20.00
2019-05-01T10:40:42.601Z,20.40
2019-05-01T10:43:12.838Z,20.30
2019-05-01T10:45:43.124Z,20.50
2019-05-01T10:48:13.371Z,20.90
2019-05-01T10:50:43.622Z,20.90
2019-05-01T10:53:13.992Z,20.80
2019-05-01T10:55:44.464Z,20.70
2019-05-01T10:58:18.521Z,20.80
2019-05-01T11:00:55.404Z,20.80
2019-05-01T11:03:25.658Z,20.70
2019-05-01T11:05:56.448Z,20.60
2019-05-01T11:08:27.093Z,20.40
2019-05-01T11:10:57.326Z,20.60
2019-05-01T11:13:27.421Z,20.50
2019-05-01T11:15:57.675Z,20.20
2019-05-01T11:18:27.919Z,20.40
2019-05-01T11:20:58.123Z,20.60
2019-05-01T11:23:28.418Z,20.80
2019-05-01T11:25:58.625Z,20.80
2019-05-01T11:28:30.477Z,20.80
2019-05-01T11:31:06.347Z,20.60
2019-05-01T11:34:01.576Z,20.80
2019-05-01T11:36:51.321Z,21.00
2019-05-01T11:39:29.187Z,20.90
2019-05-01T11:42:04.184Z,20.20
2019-05-01T11:44:34.306Z,19.30
2019-05-01T11:47:04.990Z,18.70
2019-05-01T11:49:35.253Z,18.30
2019-05-01T11:52:09.689Z,18.10
2019-05-01T11:54:41.700Z,17.90
2019-05-01T11:57:12.005Z,18.10
2019-05-01T11:59:43.523Z,18.20
2019-05-01T12:02:13.767Z,18.40
2019-05-01T12:04:44.035Z,18.70
2019-05-01T12:07:14.158Z,19.10
2019-05-01T12:09:44.321Z,19.60
2019-05-01T12:12:16.259Z,20.10
2019-05-01T12:14:46.330Z,20.30
2019-05-01T12:17:40.902Z,20.20
2019-05-01T12:20:11.444Z,20.00
2019-05-01T12:22:41.504Z,19.80
2019-05-01T12:25:11.957Z,19.60
2019-05-01T12:27:43.737Z,19.00
2019-05-01T12:30:15.677Z,18.80
2019-05-01T12:32:46.122Z,18.80
2019-05-01T12:35:17.045Z,18.90
2019-05-01T12:37:47.210Z,19.30
2019-05-01T12:40:19.353Z,19.90
2019-05-01T12:42:49.727Z,20.60
2019-05-01T12:45:19.978Z,21.30
2019-05-01T12:47:54.959Z,22.00
2019-05-01T12:50:25.151Z,22.30
2019-05-01T12:53:20.254Z,22.30
2019-05-01T12:56:15.493Z,21.90
2019-05-01T12:58:46.698Z,21.50
2019-05-01T13:01:16.799Z,21.00
2019-05-01T13:03:46.962Z,20.40
2019-05-01T13:06:17.100Z,19.80
2019-05-01T13:08:47.177Z,19.30
2019-05-01T13:11:17.307Z,19.00
2019-05-01T13:13:48.251Z,19.10
2019-05-01T13:16:18.735Z,19.50
2019-05-01T13:18:49.164Z,20.00
2019-05-01T13:21:19.237Z,20.20
2019-05-01T13:23:49.386Z,20.20
2019-05-01T13:26:28.778Z,19.90
2019-05-01T13:29:04.017Z,19.70
2019-05-01T13:31:53.149Z,19.60
2019-05-01T13:34:23.383Z,19.60
2019-05-01T13:37:02.698Z,19.70
2019-05-01T13:39:26.739Z,19.70
2019-05-01T13:41:56.812Z,19.80
2019-05-01T13:44:27.157Z,20.10
2019-05-01T13:46:57.229Z,20.10
2019-05-01T13:49:27.464Z,20.00
2019-05-01T13:51:57.693Z,20.00
2019-05-01T13:54:27.852Z,20.10
2019-05-01T13:56:57.984Z,20.10
2019-05-01T13:59:28.316Z,20.20
2019-05-01T14:01:58.358Z,20.20
2019-05-01T14:04:28.549Z,20.00
2019-05-01T14:06:58.665Z,20.00
2019-05-01T14:09:31.931Z,20.10
2019-05-01T14:12:02.255Z,20.00
2019-05-01T14:14:33.667Z,20.10
2019-05-01T14:17:03.798Z,20.00
2019-05-01T14:19:35.345Z,20.00
2019-05-01T14:22:33.547Z,19.90
2019-05-01T14:25:05.594Z,19.80
2019-05-01T14:27:36.188Z,19.90
2019-05-01T14:30:08.108Z,20.20
2019-05-01T14:32:38.246Z,20.50
2019-05-01T14:35:09.060Z,20.50
2019-05-01T14:37:39.416Z,20.50
2019-05-01T14:40:10.354Z,20.40
2019-05-01T14:42:40.456Z,20.30
2019-05-01T14:45:11.223Z,20.30
2019-05-01T14:47:41.252Z,20.30
2019-05-01T14:50:11.558Z,20.30
2019-05-01T14:52:41.752Z,20.40
2019-05-01T14:55:11.993Z,20.20
2019-05-01T14:57:42.077Z,20.00
2019-05-01T15:00:12.748Z,19.80
2019-05-01T15:02:43.123Z,19.70
2019-05-01T15:05:14.772Z,19.90
2019-05-01T15:07:44.816Z,20.20
2019-05-01T15:10:15.045Z,21.20
2019-05-01T15:12:46.811Z,21.70
2019-05-01T15:15:34.089Z,22.00
2019-05-01T15:18:10.206Z,22.00
2019-05-01T15:20:40.503Z,22.20
2019-05-01T15:23:10.623Z,22.40
2019-05-01T15:25:40.778Z,22.20
2019-05-01T15:28:11.133Z,22.20
2019-05-01T15:30:41.333Z,22.10
2019-05-01T15:33:11.547Z,21.90
2019-05-01T15:35:41.697Z,21.70
2019-05-01T15:38:11.828Z,21.40
2019-05-01T15:41:07.499Z,21.00
2019-05-01T15:43:40.755Z,20.80
2019-05-01T15:46:10.872Z,20.90
2019-05-01T15:48:40.945Z,21.00
2019-05-01T15:51:11.016Z,20.90
2019-05-01T15:53:41.143Z,20.80
2019-05-01T15:56:11.353Z,21.00
2019-05-01T15:58:41.557Z,20.90
2019-05-01T16:01:11.656Z,20.50
2019-05-01T16:03:41.798Z,20.30
2019-05-01T16:06:11.852Z,20.40
2019-05-01T16:08:42.003Z,20.70
2019-05-01T16:11:37.913Z,21.10
2019-05-01T16:14:07.979Z,21.40
2019-05-01T16:16:38.327Z,21.40
2019-05-01T16:19:08.597Z,21.60
2019-05-01T16:21:38.742Z,21.50
2019-05-01T16:24:08.823Z,21.30
2019-05-01T16:26:38.929Z,20.70
2019-05-01T16:29:09.020Z,20.40
2019-05-01T16:31:39.251Z,20.40
2019-05-01T16:34:09.451Z,20.50
2019-05-01T16:36:39.683Z,20.60
2019-05-01T16:39:33.464Z,21.00
2019-05-01T16:42:03.788Z,21.10
2019-05-01T16:44:33.967Z,21.30
2019-05-01T16:47:04.270Z,21.50
2019-05-01T16:49:34.421Z,21.80
2019-05-01T16:52:04.788Z,21.70
2019-05-01T16:54:35.023Z,21.80
2019-05-01T16:57:06.623Z,21.80
2019-05-01T16:59:36.801Z,21.70
2019-05-01T17:02:38.345Z,21.60
2019-05-01T17:05:26.298Z,21.30
2019-05-01T17:08:04.277Z,20.90
2019-05-01T17:10:36.465Z,20.90
2019-05-01T17:13:07.507Z,20.80
2019-05-01T17:15:41.860Z,20.70
2019-05-01T17:18:12.098Z,20.40
2019-05-01T17:20:42.382Z,20.10
2019-05-01T17:23:12.622Z,19.90
2019-05-01T17:25:43.111Z,19.40
2019-05-01T17:28:13.408Z,19.10
2019-05-01T17:30:55.513Z,18.80
2019-05-01T17:33:25.776Z,18.70
2019-05-01T17:35:56.279Z,18.50
2019-05-01T17:38:26.819Z,18.30
2019-05-01T17:41:00.065Z,18.10
2019-05-01T17:43:30.265Z,18.10
2019-05-01T17:46:00.422Z,18.00
2019-05-01T17:48:33.608Z,17.90
2019-05-01T17:51:02.499Z,17.70
2019-05-01T17:53:32.660Z,17.20
2019-05-01T17:56:04.765Z,16.80
2019-05-01T17:58:36.873Z,16.40
2019-05-01T18:01:27.704Z,16.00
2019-05-01T18:04:13.554Z,15.80
2019-05-01T18:06:46.682Z,15.50
2019-05-01T18:09:18.533Z,15.30
2019-05-01T18:11:52.270Z,15.10
2019-05-01T18:14:21.578Z,15.00
2019-05-01T18:16:51.793Z,14.80
2019-05-01T18:19:22.219Z,14.70
2019-05-01T18:22:02.527Z,14.50
2019-05-01T18:24:53.873Z,14.40
2019-05-01T18:27:41.598Z,14.20
2019-05-01T18:30:15.906Z,14.10
2019-05-01T18:32:52.065Z,14.00
2019-05-01T18:35:18.451Z,13.80
2019-05-01T18:37:56.066Z,13.70
2019-05-01T18:40:33.881Z,13.60
2019-05-01T18:43:04.694Z,13.40
2019-05-01T18:45:55.037Z,13.30
2019-05-01T18:48:26.034Z,13.20
2019-05-01T18:50:56.538Z,13.10
2019-05-01T18:53:26.723Z,13.00
2019-05-01T18:56:01.302Z,12.80
2019-05-01T18:58:39.875Z,12.70
2019-05-01T19:01:10.939Z,12.60
2019-05-01T19:03:42.471Z,12.50
2019-05-01T19:06:13.077Z,12.40
2019-05-01T19:08:43.433Z,12.30
2019-05-01T19:11:13.963Z,12.20
2019-05-01T19:13:44.155Z,12.10
2019-05-01T19:16:15.254Z,12.00
2019-05-01T19:18:45.700Z,11.90
2019-05-01T19:21:18.302Z,11.80
2019-05-01T19:23:48.763Z,11.70
2019-05-01T19:26:18.912Z,11.70
2019-05-01T19:28:49.219Z,11.60
2019-05-01T19:31:21.342Z,11.40
2019-05-01T19:33:51.261Z,11.40
2019-05-01T19:36:21.559Z,11.30
2019-05-01T19:38:52.116Z,11.30
2019-05-01T19:41:22.469Z,11.20
2019-05-01T19:43:52.600Z,11.20
2019-05-01T19:46:22.862Z,11.20
2019-05-01T19:48:53.181Z,11.20
2019-05-01T19:51:25.965Z,11.10
2019-05-01T19:53:56.135Z,11.00
2019-05-01T19:56:26.393Z,11.00
2019-05-01T19:58:56.541Z,11.00
2019-05-01T20:01:26.619Z,10.90
2019-05-01T20:03:56.867Z,10.80
2019-05-01T20:06:27.116Z,10.80
2019-05-01T20:08:57.301Z,10.70
2019-05-01T20:11:27.477Z,10.70
2019-05-01T20:13:57.954Z,10.60
2019-05-01T20:16:28.189Z,10.50
2019-05-01T20:18:58.324Z,10.50
2019-05-01T20:21:28.470Z,10.50
2019-05-01T20:23:59.598Z,10.50
2019-05-01T20:26:32.161Z,10.40
2019-05-01T20:29:01.517Z,10.40
2019-05-01T20:31:32.865Z,10.30
2019-05-01T20:34:03.308Z,10.30
2019-05-01T20:36:33.345Z,10.20
2019-05-01T20:39:06.325Z,10.20
2019-05-01T20:41:36.509Z,10.10
2019-05-01T20:44:06.607Z,10.10
2019-05-01T20:46:36.732Z,10.00
2019-05-01T20:49:06.889Z,10.00
2019-05-01T20:51:37.054Z,9.90
2019-05-01T20:54:07.144Z,9.90
2019-05-01T20:56:42.871Z,9.80
2019-05-01T20:59:12.953Z,9.80
2019-05-01T21:01:43.095Z,9.80
2019-05-01T21:04:30.183Z,9.70
2019-05-01T21:07:15.689Z,9.70
2019-05-01T21:09:47.779Z,9.70
2019-05-01T21:12:17.395Z,9.60
2019-05-01T21:14:49.711Z,9.60
2019-05-01T21:17:19.316Z,9.60
2019-05-01T21:19:49.459Z,9.50
2019-05-01T21:22:19.526Z,9.50
2019-05-01T21:24:49.687Z,9.50
2019-05-01T21:27:21.938Z,9.50
2019-05-01T21:29:53.358Z,9.40
2019-05-01T21:32:27.428Z,9.40
2019-05-01T21:34:55.380Z,9.30
2019-05-01T21:37:25.493Z,9.20
2019-05-01T21:39:55.526Z,9.20
2019-05-01T21:42:25.574Z,9.20
2019-05-01T21:44:55.719Z,9.10
2019-05-01T21:47:25.748Z,9.10
2019-05-01T21:49:57.499Z,9.00
2019-05-01T21:52:27.583Z,9.00
2019-05-01T21:54:59.977Z,9.00
2019-05-01T21:57:33.197Z,8.90
2019-05-01T22:00:05.552Z,8.90
2019-05-01T22:02:35.644Z,8.80
2019-05-01T22:05:06.023Z,8.80
2019-05-01T22:07:38.386Z,8.70
2019-05-01T22:10:08.743Z,8.70
2019-05-01T22:12:38.894Z,8.60
2019-05-01T22:15:26.109Z,8.60
2019-05-01T22:18:17.254Z,8.60
2019-05-01T22:21:06.612Z,8.50
2019-05-01T22:23:55.787Z,8.40
2019-05-01T22:26:27.929Z,8.40
2019-05-01T22:28:59.605Z,8.40
2019-05-01T22:31:58.801Z,8.30
2019-05-01T22:34:54.157Z,8.30
2019-05-01T22:37:24.907Z,8.30
2019-05-01T22:40:01.658Z,8.30
2019-05-01T22:42:31.821Z,8.20
2019-05-01T22:45:01.926Z,8.20
2019-05-01T22:47:32.064Z,8.20
2019-05-01T22:50:02.083Z,8.10
2019-05-01T22:52:35.221Z,8.10
2019-05-01T22:55:06.983Z,8.10
2019-05-01T22:57:37.028Z,8.00
2019-05-01T23:00:11.614Z,8.00
2019-05-01T23:02:42.031Z,8.00
2019-05-01T23:05:13.677Z,8.00
2019-05-01T23:07:44.527Z,8.00
2019-05-01T23:10:15.028Z,8.00
2019-05-01T23:12:45.162Z,8.00
2019-05-01T23:15:20.403Z,8.00
2019-05-01T23:17:50.607Z,8.00
2019-05-01T23:20:20.942Z,7.90
2019-05-01T23:22:50.962Z,7.90
2019-05-01T23:25:24.177Z,7.90
2019-05-01T23:27:54.447Z,7.90
2019-05-01T23:30:24.575Z,7.80
2019-05-01T23:32:55.007Z,7.80
2019-05-01T23:35:25.054Z,7.80
2019-05-01T23:37:55.168Z,7.80
2019-05-01T23:40:27.777Z,7.80
2019-05-01T23:43:00.234Z,7.70
2019-05-01T23:45:30.331Z,7.70
2019-05-01T23:48:00.850Z,7.70
2019-05-01T23:50:31.018Z,7.60
2019-05-01T23:53:01.136Z,7.60
2019-05-01T23:55:31.261Z,7.60
2019-05-01T23:58:01.430Z,7.60
